sensor_id;sensor_type;location;lat;lon;timestamp;pressure;altitude;pressure_sealevel;temperature;humidity
14204;BME280;7185;51.854;6.622;2023-03-03T00:01:00;102119.06;;;3.39;91.66
14204;BME280;7185;51.854;6.622;2023-03-03T00:03:32;102128.25;;;3.31;91.38
14204;BME280;7185;51.854;6.622;2023-03-03T00:06:03;102127.59;;;3.37;91.20
14204;BME280;7185;51.854;6.622;2023-03-03T00:08:37;102129.31;;;3.36;91.45
14204;BME280;7185;51.854;6.622;2023-03-03T00:11:08;102125.06;;;3.38;91.26
14204;BME280;7185;51.854;6.622;2023-03-03T00:13:43;102130.47;;;3.44;90.72
14204;BME280;7185;51.854;6.622;2023-03-03T00:16:16;102140.56;;;3.12;91.14
14204;BME280;7185;51.854;6.622;2023-03-03T00:18:51;102136.66;;;3.01;91.85
14204;BME280;7185;51.854;6.622;2023-03-03T00:21:24;102141.38;;;3.11;92.13
14204;BME280;7185;51.854;6.622;2023-03-03T00:24:10;102141.78;;;2.99;91.56
14204;BME280;7185;51.854;6.622;2023-03-03T00:26:43;102138.19;;;3.18;92.10
14204;BME280;7185;51.854;6.622;2023-03-03T00:29:23;102139.19;;;3.22;91.58
14204;BME280;7185;51.854;6.622;2023-03-03T00:31:59;102138.19;;;3.18;91.51
14204;BME280;7185;51.854;6.622;2023-03-03T00:34:37;102141.25;;;3.08;91.36
14204;BME280;7185;51.854;6.622;2023-03-03T00:37:19;102145.00;;;3.16;91.29
14204;BME280;7185;51.854;6.622;2023-03-03T00:39:54;102142.16;;;3.09;90.87
14204;BME280;7185;51.854;6.622;2023-03-03T00:42:29;102138.75;;;3.10;91.69
14204;BME280;7185;51.854;6.622;2023-03-03T00:45:04;102150.63;;;3.05;91.35
14204;BME280;7185;51.854;6.622;2023-03-03T00:47:48;102156.66;;;2.81;92.58
14204;BME280;7185;51.854;6.622;2023-03-03T00:50:23;102144.97;;;2.92;93.28
14204;BME280;7185;51.854;6.622;2023-03-03T00:53:00;102136.78;;;3.04;92.57
14204;BME280;7185;51.854;6.622;2023-03-03T00:55:33;102141.94;;;2.80;93.35
14204;BME280;7185;51.854;6.622;2023-03-03T00:58:05;102147.28;;;2.84;93.50
14204;BME280;7185;51.854;6.622;2023-03-03T01:00:36;102143.16;;;3.12;91.98
14204;BME280;7185;51.854;6.622;2023-03-03T01:03:08;102148.19;;;3.09;91.81
14204;BME280;7185;51.854;6.622;2023-03-03T01:05:41;102151.19;;;3.20;91.55
14204;BME280;7185;51.854;6.622;2023-03-03T01:08:13;102147.78;;;3.21;91.68
14204;BME280;7185;51.854;6.622;2023-03-03T01:10:46;102151.19;;;3.20;91.51
14204;BME280;7185;51.854;6.622;2023-03-03T01:13:21;102153.50;;;3.12;90.70
14204;BME280;7185;51.854;6.622;2023-03-03T01:15:53;102156.47;;;2.99;91.26
14204;BME280;7185;51.854;6.622;2023-03-03T01:18:24;102148.63;;;2.75;92.06
14204;BME280;7185;51.854;6.622;2023-03-03T01:20:56;102148.69;;;2.76;93.26
14204;BME280;7185;51.854;6.622;2023-03-03T01:23:27;102147.16;;;2.81;92.17
14204;BME280;7185;51.854;6.622;2023-03-03T01:26:00;102142.56;;;2.74;93.15
14204;BME280;7185;51.854;6.622;2023-03-03T01:28:32;102146.50;;;2.87;92.80
14204;BME280;7185;51.854;6.622;2023-03-03T01:31:03;102141.53;;;2.92;92.63
14204;BME280;7185;51.854;6.622;2023-03-03T01:33:35;102144.78;;;2.65;93.40
14204;BME280;7185;51.854;6.622;2023-03-03T01:36:07;102140.88;;;2.75;93.04
14204;BME280;7185;51.854;6.622;2023-03-03T01:38:38;102155.66;;;2.77;92.78
14204;BME280;7185;51.854;6.622;2023-03-03T01:41:11;102144.22;;;2.95;92.57
14204;BME280;7185;51.854;6.622;2023-03-03T01:43:43;102157.41;;;2.78;92.03
14204;BME280;7185;51.854;6.622;2023-03-03T01:46:29;102152.28;;;3.02;91.44
14204;BME280;7185;51.854;6.622;2023-03-03T01:49:02;102156.16;;;2.68;92.08
14204;BME280;7185;51.854;6.622;2023-03-03T01:51:36;102154.09;;;2.82;92.46
14204;BME280;7185;51.854;6.622;2023-03-03T01:54:09;102150.47;;;2.77;92.12
14204;BME280;7185;51.854;6.622;2023-03-03T01:56:45;102142.66;;;2.54;92.51
14204;BME280;7185;51.854;6.622;2023-03-03T01:59:17;102140.19;;;2.80;91.77
14204;BME280;7185;51.854;6.622;2023-03-03T02:01:50;102146.78;;;2.95;91.30
14204;BME280;7185;51.854;6.622;2023-03-03T02:04:21;102145.97;;;2.96;91.68
14204;BME280;7185;51.854;6.622;2023-03-03T02:06:56;102150.16;;;2.92;92.24
14204;BME280;7185;51.854;6.622;2023-03-03T02:09:29;102148.16;;;2.85;91.95
14204;BME280;7185;51.854;6.622;2023-03-03T02:12:06;102136.16;;;2.64;93.17
14204;BME280;7185;51.854;6.622;2023-03-03T02:14:38;102148.56;;;2.73;92.55
14204;BME280;7185;51.854;6.622;2023-03-03T02:17:10;102148.69;;;2.76;92.39
14204;BME280;7185;51.854;6.622;2023-03-03T02:19:42;102153.88;;;2.76;91.38
14204;BME280;7185;51.854;6.622;2023-03-03T02:22:21;102157.91;;;2.69;92.35
14204;BME280;7185;51.854;6.622;2023-03-03T02:24:55;102152.91;;;2.74;92.11
14204;BME280;7185;51.854;6.622;2023-03-03T02:27:30;102149.84;;;2.62;92.89
14204;BME280;7185;51.854;6.622;2023-03-03T02:30:10;102151.88;;;2.92;92.18
14204;BME280;7185;51.854;6.622;2023-03-03T02:32:41;102156.56;;;2.79;92.26
14204;BME280;7185;51.854;6.622;2023-03-03T02:38:08;102156.22;;;2.93;91.47
14204;BME280;7185;51.854;6.622;2023-03-03T02:40:43;102153.78;;;2.97;91.16
14204;BME280;7185;51.854;6.622;2023-03-03T02:43:19;102151.34;;;2.78;91.36
14204;BME280;7185;51.854;6.622;2023-03-03T02:45:52;102155.88;;;2.83;91.31
14204;BME280;7185;51.854;6.622;2023-03-03T02:48:24;102161.22;;;2.65;91.96
14204;BME280;7185;51.854;6.622;2023-03-03T02:50:55;102158.91;;;2.73;91.69
14204;BME280;7185;51.854;6.622;2023-03-03T02:53:26;102152.69;;;2.68;92.37
14204;BME280;7185;51.854;6.622;2023-03-03T02:55:58;102158.41;;;2.82;91.65
14204;BME280;7185;51.854;6.622;2023-03-03T02:58:30;102157.75;;;2.87;91.05
14204;BME280;7185;51.854;6.622;2023-03-03T03:01:02;102155.97;;;2.86;90.95
14204;BME280;7185;51.854;6.622;2023-03-03T03:03:33;102163.66;;;2.83;91.14
14204;BME280;7185;51.854;6.622;2023-03-03T03:06:05;102161.16;;;2.86;91.21
14204;BME280;7185;51.854;6.622;2023-03-03T03:08:36;102163.47;;;2.79;91.40
14204;BME280;7185;51.854;6.622;2023-03-03T03:11:08;102155.56;;;2.53;92.62
14204;BME280;7185;51.854;6.622;2023-03-03T03:13:41;102155.84;;;2.61;92.16
14204;BME280;7185;51.854;6.622;2023-03-03T03:16:12;102153.63;;;2.70;92.32
14204;BME280;7185;51.854;6.622;2023-03-03T03:18:44;102158.53;;;2.85;91.75
14204;BME280;7185;51.854;6.622;2023-03-03T03:21:15;102160.16;;;2.83;90.62
14204;BME280;7185;51.854;6.622;2023-03-03T03:23:47;102162.41;;;2.96;91.39
14204;BME280;7185;51.854;6.622;2023-03-03T03:26:18;102164.56;;;2.85;90.57
14204;BME280;7185;51.854;6.622;2023-03-03T03:28:51;102163.41;;;3.00;90.52
14204;BME280;7185;51.854;6.622;2023-03-03T03:31:23;102165.16;;;3.01;90.05
14204;BME280;7185;51.854;6.622;2023-03-03T03:33:54;102164.84;;;2.92;91.00
14204;BME280;7185;51.854;6.622;2023-03-03T03:36:25;102162.47;;;2.98;90.84
14204;BME280;7185;51.854;6.622;2023-03-03T03:38:57;102172.13;;;3.02;90.38
14204;BME280;7185;51.854;6.622;2023-03-03T03:41:31;102163.28;;;2.97;91.17
14204;BME280;7185;51.854;6.622;2023-03-03T03:44:04;102161.06;;;3.06;91.25
14204;BME280;7185;51.854;6.622;2023-03-03T03:46:36;102159.88;;;2.98;91.46
14204;BME280;7185;51.854;6.622;2023-03-03T03:49:07;102158.47;;;3.06;90.66
14204;BME280;7185;51.854;6.622;2023-03-03T03:51:38;102160.34;;;3.10;91.30
14204;BME280;7185;51.854;6.622;2023-03-03T03:54:11;102156.94;;;3.11;90.93
14204;BME280;7185;51.854;6.622;2023-03-03T03:56:42;102161.16;;;3.09;90.88
14204;BME280;7185;51.854;6.622;2023-03-03T03:59:15;102163.97;;;3.15;90.90
14204;BME280;7185;51.854;6.622;2023-03-03T04:01:46;102160.34;;;3.10;91.13
14204;BME280;7185;51.854;6.622;2023-03-03T04:04:19;102156.09;;;3.12;90.80
14204;BME280;7185;51.854;6.622;2023-03-03T04:06:50;102158.47;;;3.06;90.62
14204;BME280;7185;51.854;6.622;2023-03-03T04:09:21;102151.53;;;3.05;91.50
14204;BME280;7185;51.854;6.622;2023-03-03T04:11:53;102152.09;;;2.98;91.57
14204;BME280;7185;51.854;6.622;2023-03-03T04:14:25;102149.75;;;3.04;91.76
14204;BME280;7185;51.854;6.622;2023-03-03T04:16:57;102144.94;;;2.91;92.52
14204;BME280;7185;51.854;6.622;2023-03-03T04:19:28;102146.09;;;2.99;92.81
14204;BME280;7185;51.854;6.622;2023-03-03T04:22:00;102147.09;;;3.02;92.38
14204;BME280;7185;51.854;6.622;2023-03-03T04:24:31;102141.38;;;3.11;92.19
14204;BME280;7185;51.854;6.622;2023-03-03T04:27:02;102145.84;;;3.15;91.52
14204;BME280;7185;51.854;6.622;2023-03-03T04:29:35;102143.16;;;3.12;91.75
14204;BME280;7185;51.854;6.622;2023-03-03T04:32:06;102145.91;;;3.17;91.68
14204;BME280;7185;51.854;6.622;2023-03-03T04:34:38;102143.53;;;2.99;92.13
14204;BME280;7185;51.854;6.622;2023-03-03T04:37:09;102151.75;;;3.11;91.54
14204;BME280;7185;51.854;6.622;2023-03-03T04:39:40;102152.09;;;3.21;91.80
14204;BME280;7185;51.854;6.622;2023-03-03T04:42:12;102156.47;;;2.99;92.48
14204;BME280;7185;51.854;6.622;2023-03-03T04:44:46;102156.47;;;2.99;92.70
14204;BME280;7185;51.854;6.622;2023-03-03T04:47:17;102152.94;;;2.97;92.40
14204;BME280;7185;51.854;6.622;2023-03-03T04:49:48;102156.03;;;3.11;92.13
14204;BME280;7185;51.854;6.622;2023-03-03T04:52:20;102157.94;;;3.15;91.60
14204;BME280;7185;51.854;6.622;2023-03-03T04:54:51;102165.53;;;3.10;91.90
14204;BME280;7185;51.854;6.622;2023-03-03T04:57:22;102163.97;;;2.93;93.10
14204;BME280;7185;51.854;6.622;2023-03-03T04:59:55;102168.94;;;2.86;93.52
14204;BME280;7185;51.854;6.622;2023-03-03T05:02:27;102165.06;;;2.98;92.60
14204;BME280;7185;51.854;6.622;2023-03-03T05:04:59;102168.41;;;2.73;93.38
14204;BME280;7185;51.854;6.622;2023-03-03T05:07:30;102168.00;;;2.84;93.91
14204;BME280;7185;51.854;6.622;2023-03-03T05:10:02;102173.53;;;2.94;93.49
14204;BME280;7185;51.854;6.622;2023-03-03T05:12:33;102175.28;;;3.17;92.39
14204;BME280;7185;51.854;6.622;2023-03-03T05:15:06;102174.34;;;3.15;92.23
14204;BME280;7185;51.854;6.622;2023-03-03T05:17:38;102178.75;;;3.18;91.88
14204;BME280;7185;51.854;6.622;2023-03-03T05:20:10;102169.06;;;3.12;91.68
14204;BME280;7185;51.854;6.622;2023-03-03T05:22:42;102172.72;;;3.17;91.50
14204;BME280;7185;51.854;6.622;2023-03-03T05:25:15;102175.34;;;3.19;92.22
14204;BME280;7185;51.854;6.622;2023-03-03T05:27:47;102172.75;;;3.19;91.23
14204;BME280;7185;51.854;6.622;2023-03-03T05:30:19;102174.28;;;2.91;92.59
14204;BME280;7185;51.854;6.622;2023-03-03T05:32:51;102166.75;;;2.97;92.73
14204;BME280;7185;51.854;6.622;2023-03-03T05:35:22;102175.75;;;3.07;92.38
14204;BME280;7185;51.854;6.622;2023-03-03T05:37:54;102168.53;;;3.21;91.85
14204;BME280;7185;51.854;6.622;2023-03-03T05:40:27;102164.09;;;3.18;91.62
14204;BME280;7185;51.854;6.622;2023-03-03T05:42:58;102169.44;;;2.99;92.12
14204;BME280;7185;51.854;6.622;2023-03-03T05:45:31;102165.06;;;2.98;92.44
14204;BME280;7185;51.854;6.622;2023-03-03T05:48:03;102174.06;;;3.08;92.35
14204;BME280;7185;51.854;6.622;2023-03-03T05:50:35;102178.34;;;3.07;92.15
14204;BME280;7185;51.854;6.622;2023-03-03T05:53:06;102177.06;;;2.96;91.96
14204;BME280;7185;51.854;6.622;2023-03-03T05:55:37;102180.25;;;3.11;91.89
14204;BME280;7185;51.854;6.622;2023-03-03T05:58:09;102180.72;;;3.01;91.94
14204;BME280;7185;51.854;6.622;2023-03-03T06:00:42;102183.63;;;3.09;91.45
14204;BME280;7185;51.854;6.622;2023-03-03T06:03:13;102189.81;;;3.12;91.74
14204;BME280;7185;51.854;6.622;2023-03-03T06:05:46;102192.25;;;3.09;91.61
14204;BME280;7185;51.854;6.622;2023-03-03T06:08:17;102190.63;;;3.11;91.66
14204;BME280;7185;51.854;6.622;2023-03-03T06:10:49;102198.84;;;3.01;91.68
14204;BME280;7185;51.854;6.622;2023-03-03T06:13:20;102198.03;;;3.02;91.38
14204;BME280;7185;51.854;6.622;2023-03-03T06:15:53;102202.41;;;3.03;90.96
14204;BME280;7185;51.854;6.622;2023-03-03T06:18:25;102196.50;;;3.07;90.78
14204;BME280;7185;51.854;6.622;2023-03-03T06:20:56;102194.97;;;3.12;90.93
14204;BME280;7185;51.854;6.622;2023-03-03T06:23:27;102200.53;;;2.99;91.52
14204;BME280;7185;51.854;6.622;2023-03-03T06:25:59;102204.75;;;2.97;91.95
14204;BME280;7185;51.854;6.622;2023-03-03T06:28:30;102205.34;;;3.12;90.71
14204;BME280;7185;51.854;6.622;2023-03-03T06:31:03;102203.22;;;3.02;90.55
14204;BME280;7185;51.854;6.622;2023-03-03T06:33:35;102204.63;;;3.16;90.78
14204;BME280;7185;51.854;6.622;2023-03-03T06:36:07;102211.13;;;3.05;90.66
14204;BME280;7185;51.854;6.622;2023-03-03T06:38:40;102209.94;;;3.19;90.24
14204;BME280;7185;51.854;6.622;2023-03-03T06:41:11;102209.16;;;3.22;90.30
14204;BME280;7185;51.854;6.622;2023-03-03T06:43:43;102221.13;;;3.18;89.86
14204;BME280;7185;51.854;6.622;2023-03-03T06:46:15;102211.81;;;3.24;89.67
14204;BME280;7185;51.854;6.622;2023-03-03T06:48:47;102217.72;;;3.19;89.98
14204;BME280;7185;51.854;6.622;2023-03-03T06:51:22;102223.34;;;3.09;89.90
14204;BME280;7185;51.854;6.622;2023-03-03T06:53:56;102224.41;;;3.14;89.59
14204;BME280;7185;51.854;6.622;2023-03-03T06:56:35;102220.78;;;3.09;89.67
14204;BME280;7185;51.854;6.622;2023-03-03T06:59:09;102221.31;;;3.00;89.48
14204;BME280;7185;51.854;6.622;2023-03-03T07:01:45;102234.53;;;3.08;88.69
14204;BME280;7185;51.854;6.622;2023-03-03T07:04:21;102234.91;;;3.17;88.15
14204;BME280;7185;51.854;6.622;2023-03-03T07:06:55;102235.31;;;3.28;88.30
14204;BME280;7185;51.854;6.622;2023-03-03T07:09:28;102251.50;;;3.23;88.60
14204;BME280;7185;51.854;6.622;2023-03-03T07:12:00;102252.09;;;3.15;88.81
14204;BME280;7185;51.854;6.622;2023-03-03T07:14:31;102244.28;;;3.14;89.16
14204;BME280;7185;51.854;6.622;2023-03-03T07:17:09;102245.50;;;3.24;88.32
14204;BME280;7185;51.854;6.622;2023-03-03T07:19:42;102246.09;;;3.39;88.67
14204;BME280;7185;51.854;6.622;2023-03-03T07:22:15;102247.28;;;3.47;87.63
14204;BME280;7185;51.854;6.622;2023-03-03T07:24:47;102248.28;;;3.28;88.72
14204;BME280;7185;51.854;6.622;2023-03-03T07:27:22;102253.34;;;3.48;87.30
14204;BME280;7185;51.854;6.622;2023-03-03T07:29:54;102254.50;;;3.56;87.68
14204;BME280;7185;51.854;6.622;2023-03-03T07:32:30;102259.56;;;3.53;87.70
14204;BME280;7185;51.854;6.622;2023-03-03T07:35:07;102265.88;;;3.60;87.68
14204;BME280;7185;51.854;6.622;2023-03-03T07:37:48;102262.78;;;3.70;87.15
14204;BME280;7185;51.854;6.622;2023-03-03T07:40:25;102266.59;;;3.56;87.57
14204;BME280;7185;51.854;6.622;2023-03-03T07:42:58;102275.63;;;3.65;86.54
14204;BME280;7185;51.854;6.622;2023-03-03T07:45:30;102277.72;;;3.76;86.09
14204;BME280;7185;51.854;6.622;2023-03-03T07:48:13;102280.72;;;3.64;86.02
14204;BME280;7185;51.854;6.622;2023-03-03T07:50:47;102278.66;;;3.78;85.82
14204;BME280;7185;51.854;6.622;2023-03-03T07:53:21;102287.22;;;3.75;86.49
14204;BME280;7185;51.854;6.622;2023-03-03T07:55:55;102285.88;;;3.62;86.99
14204;BME280;7185;51.854;6.622;2023-03-03T07:58:28;102282.09;;;3.54;87.91
14204;BME280;7185;51.854;6.622;2023-03-03T08:03:52;102301.00;;;3.74;86.49
14204;BME280;7185;51.854;6.622;2023-03-03T08:09:24;102305.38;;;3.75;86.94
14204;BME280;7185;51.854;6.622;2023-03-03T08:11:58;102304.19;;;3.90;86.52
14204;BME280;7185;51.854;6.622;2023-03-03T08:14:33;102308.75;;;3.97;86.19
14204;BME280;7185;51.854;6.622;2023-03-03T08:17:06;102310.97;;;3.86;86.63
14204;BME280;7185;51.854;6.622;2023-03-03T08:19:39;102307.94;;;3.98;86.14
14204;BME280;7185;51.854;6.622;2023-03-03T08:22:11;102317.94;;;4.11;85.80
14204;BME280;7185;51.854;6.622;2023-03-03T08:24:47;102315.16;;;4.07;85.28
14204;BME280;7185;51.854;6.622;2023-03-03T08:27:18;102314.72;;;4.19;84.72
14204;BME280;7185;51.854;6.622;2023-03-03T08:29:50;102314.81;;;4.22;83.82
14204;BME280;7185;51.854;6.622;2023-03-03T08:32:21;102313.97;;;4.21;84.46
14204;BME280;7185;51.854;6.622;2023-03-03T08:34:54;102322.00;;;4.29;83.02
14204;BME280;7185;51.854;6.622;2023-03-03T08:37:25;102316.31;;;4.39;82.83
14204;BME280;7185;51.854;6.622;2023-03-03T08:39:57;102323.91;;;4.33;83.39
14204;BME280;7185;51.854;6.622;2023-03-03T08:42:28;102321.56;;;4.41;83.19
14204;BME280;7185;51.854;6.622;2023-03-03T08:45:00;102323.56;;;4.24;82.81
14204;BME280;7185;51.854;6.622;2023-03-03T08:47:31;102331.72;;;4.35;82.54
14204;BME280;7185;51.854;6.622;2023-03-03T08:50:04;102329.22;;;4.38;82.83
14204;BME280;7185;51.854;6.622;2023-03-03T08:52:36;102333.59;;;4.39;82.19
14204;BME280;7185;51.854;6.622;2023-03-03T08:55:07;102330.63;;;4.28;82.88
14204;BME280;7185;51.854;6.622;2023-03-03T08:57:39;102336.41;;;4.21;83.89
14204;BME280;7185;51.854;6.622;2023-03-03T09:00:12;102338.50;;;4.29;83.48
14204;BME280;7185;51.854;6.622;2023-03-03T09:02:45;102335.50;;;4.43;83.69
14204;BME280;7185;51.854;6.622;2023-03-03T09:05:19;102338.69;;;4.36;82.84
14204;BME280;7185;51.854;6.622;2023-03-03T09:07:51;102342.53;;;4.47;82.67
14204;BME280;7185;51.854;6.622;2023-03-03T09:10:24;102337.31;;;4.71;82.54
14204;BME280;7185;51.854;6.622;2023-03-03T09:12:59;102340.84;;;4.73;81.81
14204;BME280;7185;51.854;6.622;2023-03-03T09:15:31;102342.72;;;4.52;81.58
14204;BME280;7185;51.854;6.622;2023-03-03T09:18:10;102342.19;;;4.62;81.21
14204;BME280;7185;51.854;6.622;2023-03-03T09:20:45;102342.09;;;4.59;80.76
14204;BME280;7185;51.854;6.622;2023-03-03T09:23:24;102342.97;;;4.59;80.79
14204;BME280;7185;51.854;6.622;2023-03-03T09:25:58;102340.84;;;4.73;80.23
14204;BME280;7185;51.854;6.622;2023-03-03T09:28:39;102337.25;;;4.95;79.43
14204;BME280;7185;51.854;6.622;2023-03-03T09:31:16;102341.16;;;4.83;80.10
14204;BME280;7185;51.854;6.622;2023-03-03T09:33:51;102337.91;;;4.90;79.98
14204;BME280;7185;51.854;6.622;2023-03-03T09:36:28;102341.66;;;4.98;80.45
14204;BME280;7185;51.854;6.622;2023-03-03T09:39:00;102340.59;;;5.19;79.30
14204;BME280;7185;51.854;6.622;2023-03-03T09:44:43;102342.81;;;5.34;78.02
14204;BME280;7185;51.854;6.622;2023-03-03T09:47:26;102343.50;;;5.57;77.19
14204;BME280;7185;51.854;6.622;2023-03-03T09:50:01;102347.50;;;5.74;76.10
14204;BME280;7185;51.854;6.622;2023-03-03T09:52:42;102345.44;;;5.93;75.60
14204;BME280;7185;51.854;6.622;2023-03-03T09:55:27;102342.66;;;5.87;73.40
14204;BME280;7185;51.854;6.622;2023-03-03T09:58:08;102347.47;;;6.02;73.06
14204;BME280;7185;51.854;6.622;2023-03-03T10:00:46;102351.88;;;6.04;73.31
14204;BME280;7185;51.854;6.622;2023-03-03T10:06:09;102349.72;;;6.20;73.09
14204;BME280;7185;51.854;6.622;2023-03-03T10:08:48;102356.00;;;6.28;72.34
14204;BME280;7185;51.854;6.622;2023-03-03T10:11:24;102355.50;;;6.10;72.15
14204;BME280;7185;51.854;6.622;2023-03-03T10:14:06;102356.28;;;6.37;72.12
14204;BME280;7185;51.854;6.622;2023-03-03T10:16:45;102356.75;;;6.56;70.93
14204;BME280;7185;51.854;6.622;2023-03-03T10:19:24;102368.72;;;6.81;70.54
14204;BME280;7185;51.854;6.622;2023-03-03T10:22:01;102361.38;;;7.01;69.97
14204;BME280;7185;51.854;6.622;2023-03-03T10:24:39;102363.25;;;7.06;69.24
14204;BME280;7185;51.854;6.622;2023-03-03T10:27:20;102364.22;;;6.76;70.32
14204;BME280;7185;51.854;6.622;2023-03-03T10:29:59;102378.19;;;6.78;70.06
14204;BME280;7185;51.854;6.622;2023-03-03T10:32:42;102371.16;;;6.75;69.01
14204;BME280;7185;51.854;6.622;2023-03-03T10:35:24;102367.66;;;6.75;69.45
14204;BME280;7185;51.854;6.622;2023-03-03T10:38:07;102372.41;;;6.90;69.09
14204;BME280;7185;51.854;6.622;2023-03-03T10:40:47;102371.34;;;6.83;68.80
14204;BME280;7185;51.854;6.622;2023-03-03T10:43:27;102377.69;;;6.93;69.45
14204;BME280;7185;51.854;6.622;2023-03-03T10:46:07;102373.44;;;6.96;69.41
14204;BME280;7185;51.854;6.622;2023-03-03T10:48:42;102372.06;;;7.11;68.35
14204;BME280;7185;51.854;6.622;2023-03-03T10:51:20;102368.97;;;7.27;67.82
14204;BME280;7185;51.854;6.622;2023-03-03T10:53:55;102367.72;;;7.48;68.09
14204;BME280;7185;51.854;6.622;2023-03-03T10:56:34;102366.91;;;7.50;66.26
14204;BME280;7185;51.854;6.622;2023-03-03T10:59:12;102371.03;;;7.41;66.27
14204;BME280;7185;51.854;6.622;2023-03-03T11:01:46;102362.06;;;7.68;65.86
14204;BME280;7185;51.854;6.622;2023-03-03T11:04:29;102362.97;;;7.70;65.94
14204;BME280;7185;51.854;6.622;2023-03-03T11:07:07;102361.47;;;7.81;64.30
14204;BME280;7185;51.854;6.622;2023-03-03T11:09:57;102358.94;;;7.44;66.75
14204;BME280;7185;51.854;6.622;2023-03-03T11:12:36;102362.97;;;7.68;67.26
14204;BME280;7185;51.854;6.622;2023-03-03T11:15:20;102367.66;;;7.85;66.16
14204;BME280;7185;51.854;6.622;2023-03-03T11:18:02;102365.78;;;8.20;65.68
14204;BME280;7185;51.854;6.622;2023-03-03T11:20:37;102356.59;;;8.88;64.30
14204;BME280;7185;51.854;6.622;2023-03-03T11:26:06;102345.28;;;11.03;58.46
14204;BME280;7185;51.854;6.622;2023-03-03T11:28:45;102338.50;;;11.30;53.29
14204;BME280;7185;51.854;6.622;2023-03-03T11:31:22;102338.63;;;11.52;52.36
14204;BME280;7185;51.854;6.622;2023-03-03T11:34:00;102340.41;;;11.59;50.78
14204;BME280;7185;51.854;6.622;2023-03-03T11:36:37;102338.75;;;11.73;51.65
14204;BME280;7185;51.854;6.622;2023-03-03T11:39:12;102333.59;;;12.00;49.55
14204;BME280;7185;51.854;6.622;2023-03-03T11:41:49;102342.03;;;11.35;51.06
14204;BME280;7185;51.854;6.622;2023-03-03T11:44:32;102342.06;;;11.41;52.24
14204;BME280;7185;51.854;6.622;2023-03-03T11:47:08;102340.97;;;11.08;52.98
14204;BME280;7185;51.854;6.622;2023-03-03T11:49:46;102344.13;;;10.68;53.56
14204;BME280;7185;51.854;6.622;2023-03-03T11:52:21;102340.19;;;10.28;55.08
14204;BME280;7185;51.854;6.622;2023-03-03T11:54:56;102340.91;;;10.11;56.81
14204;BME280;7185;51.854;6.622;2023-03-03T11:57:31;102340.50;;;9.80;58.29
14204;BME280;7185;51.854;6.622;2023-03-03T12:00:15;102331.97;;;9.97;57.47
14204;BME280;7185;51.854;6.622;2023-03-03T12:02:57;102328.72;;;10.19;58.98
14204;BME280;7185;51.854;6.622;2023-03-03T12:05:36;102324.28;;;11.03;55.95
14204;BME280;7185;51.854;6.622;2023-03-03T12:08:13;102316.09;;;12.00;52.58
14204;BME280;7185;51.854;6.622;2023-03-03T12:10:49;102307.44;;;12.66;49.40
14204;BME280;7185;51.854;6.622;2023-03-03T12:13:28;102324.06;;;12.23;49.00
14204;BME280;7185;51.854;6.622;2023-03-03T12:16:03;102318.78;;;12.16;50.18
14204;BME280;7185;51.854;6.622;2023-03-03T12:18:44;102315.09;;;11.78;51.38
14204;BME280;7185;51.854;6.622;2023-03-03T12:21:25;102313.59;;;12.68;51.37
14204;BME280;7185;51.854;6.622;2023-03-03T12:24:06;102304.81;;;12.58;48.39
14204;BME280;7185;51.854;6.622;2023-03-03T12:26:43;102313.56;;;12.34;48.76
14204;BME280;7185;51.854;6.622;2023-03-03T12:29:20;102309.19;;;12.38;48.74
14204;BME280;7185;51.854;6.622;2023-03-03T12:31:59;102306.56;;;12.98;51.73
14204;BME280;7185;51.854;6.622;2023-03-03T12:34:33;102310.47;;;14.35;46.77
14204;BME280;7185;51.854;6.622;2023-03-03T12:37:13;102289.81;;;16.38;42.05
14204;BME280;7185;51.854;6.622;2023-03-03T12:39:51;102305.09;;;16.74;39.88
14204;BME280;7185;51.854;6.622;2023-03-03T12:42:29;102298.00;;;16.21;39.68
14204;BME280;7185;51.854;6.622;2023-03-03T12:45:06;102299.78;;;16.19;40.21
14204;BME280;7185;51.854;6.622;2023-03-03T12:47:43;102294.97;;;16.99;39.11
14204;BME280;7185;51.854;6.622;2023-03-03T12:50:21;102294.53;;;18.10;36.94
14204;BME280;7185;51.854;6.622;2023-03-03T12:52:57;102289.69;;;19.00;34.19
14204;BME280;7185;51.854;6.622;2023-03-03T12:55:35;102294.59;;;19.49;33.54
14204;BME280;7185;51.854;6.622;2023-03-03T12:58:08;102290.56;;;20.25;33.12
14204;BME280;7185;51.854;6.622;2023-03-03T13:00:46;102294.00;;;20.56;32.00
14204;BME280;7185;51.854;6.622;2023-03-03T13:03:25;102286.34;;;20.98;30.35
14204;BME280;7185;51.854;6.622;2023-03-03T13:06:03;102294.41;;;21.22;30.66
14204;BME280;7185;51.854;6.622;2023-03-03T13:08:43;76370.66;;;-147.82;30.66
14204;BME280;7185;51.854;6.622;2023-03-03T13:11:21;102285.31;;;22.66;29.18
14204;BME280;7185;51.854;6.622;2023-03-03T13:13:58;102283.41;;;23.09;28.74
14204;BME280;7185;51.854;6.622;2023-03-03T13:16:34;102291.16;;;22.74;28.30
14204;BME280;7185;51.854;6.622;2023-03-03T13:19:10;102281.81;;;23.05;27.64
14204;BME280;7185;51.854;6.622;2023-03-03T13:21:46;102278.31;;;24.21;27.29
14204;BME280;7185;51.854;6.622;2023-03-03T13:24:22;102288.47;;;23.95;27.77
14204;BME280;7185;51.854;6.622;2023-03-03T13:26:57;102283.53;;;23.47;27.09
14204;BME280;7185;51.854;6.622;2023-03-03T13:29:32;102284.41;;;23.86;27.24
14204;BME280;7185;51.854;6.622;2023-03-03T13:32:07;102274.91;;;24.89;25.77
14204;BME280;7185;51.854;6.622;2023-03-03T13:34:45;102262.28;;;24.91;25.86
14204;BME280;7185;51.854;6.622;2023-03-03T13:37:22;102262.28;;;24.91;25.55
14204;BME280;7185;51.854;6.622;2023-03-03T13:39:57;102265.53;;;24.43;25.03
14204;BME280;7185;51.854;6.622;2023-03-03T13:42:32;102266.59;;;24.58;26.58
14204;BME280;7185;51.854;6.622;2023-03-03T13:45:12;102259.66;;;24.89;25.11
14204;BME280;7185;51.854;6.622;2023-03-03T13:47:47;102264.97;;;24.73;25.21
14204;BME280;7185;51.854;6.622;2023-03-03T13:50:24;102251.03;;;25.00;24.63
14204;BME280;7185;51.854;6.622;2023-03-03T13:53:01;102248.28;;;24.49;25.88
14204;BME280;7185;51.854;6.622;2023-03-03T13:55:38;102256.03;;;24.01;25.92
14204;BME280;7185;51.854;6.622;2023-03-03T13:58:14;102247.22;;;23.99;25.60
14204;BME280;7185;51.854;6.622;2023-03-03T14:00:53;102252.91;;;24.10;25.44
14204;BME280;7185;51.854;6.622;2023-03-03T14:03:45;102244.59;;;23.40;27.23
14204;BME280;7185;51.854;6.622;2023-03-03T14:06:25;102246.47;;;23.57;27.28